Main page
METAR-TAF:

METAR-TAF

Airports :

Ulan Bator, Mongolia

Chinggis Khaan International Airport

latitude: 47-55N, longitude: 106-52E, elevation: 1306 m

Current weather observation

The report was made 33 minutes ago, at 15:00 UTC
Wind 2 kt from variable directions
Temperature -36°C
Humidity 66%
Pressure 1022 hPa
Visibility 10 km or more
no clouds below 1500 m and no cumulonimbus

METAR: ZMUB 231500Z VRB01MPS CAVOK M36/M40 Q1022 NOSIG RMK QFE658.4 61

Time: 23:33 (15:33 UTC)

Forecast

The report was made 4 hours and 53 minutes ago, at 10:40 UTC
Forecast valid from 23 at 12 UTC to 24 at 18 UTC
Wind 4 kt from variable directions
Visibility 10 km or more
Scattered clouds at a height of 10000 ft
Becoming
from 23 at 16 UTC to 23 at 18 UTC
Visibility: 6000 m
Becoming
from 23 at 23 UTC to 24 at 01 UTC
Visibility: 4000 m
smoke
Becoming
from 24 at 06 UTC to 24 at 08 UTC
Visibility: 6000 m

TAF: ZMUB 231040Z 2312/2418 VRB02MPS 9999 SCT100 TNM39/2323Z TXM24/2407Z BECMG 2316/2318 6000 BECMG 2323/2401 4000 FU BECMG 2406/2408 6000

Weather observations and forecasts of more than 4000 airports (METAR and TAF reports).

The available stations are represented by yellow and red dots on the map.

Hover mouse over dot to see the name of the station.

Then click to see weather observations and forecasts.

To change the map : click on the green buttons with a black cross to zoom in, on the green button with a dash to zoom out, or on the green arrows for adjacent maps.


METAR-TAF: